Time;durP1;ratioP1;P1;durP2;ratioP2;P2;SDS_P1;SDS_P2;PMS_P1;PMS_P2;Temp;Humidity;BMP_temperature;BMP_pressure;BME280_temperature;BME280_humidity;BME280_pressure;Samples;Min_cycle;Max_cycle;Signal;HPM_P1;HPM_P2
2023/06/05 00:02:04;;;;;;;3.15;1.15;;;13.40;99.90;;;;;;5051988;28;20033;-80
2023/06/05 00:04:30;;;;;;;1.83;1.05;;;13.40;99.90;;;;;;5051587;28;20469;-79
2023/06/05 00:06:57;;;;;;;2.40;1.05;;;13.40;99.90;;;;;;5049322;28;20037;-79
2023/06/05 00:09:23;;;;;;;3.83;1.15;;;13.40;99.90;;;;;;5058648;28;20048;-79
2023/06/05 00:11:50;;;;;;;3.08;1.20;;;13.50;99.90;;;;;;5050855;28;20100;-79
2023/06/05 00:14:16;;;;;;;2.65;1.40;;;13.50;99.90;;;;;;5051077;28;20385;-79
2023/06/05 00:16:43;;;;;;;3.50;1.38;;;13.50;99.90;;;;;;5050495;28;20029;-80
2023/06/05 00:19:09;;;;;;;1.75;0.70;;;13.50;99.90;;;;;;5050027;28;20035;-80
2023/06/05 00:21:36;;;;;;;2.72;0.93;;;13.40;99.90;;;;;;5048292;28;20041;-79
2023/06/05 00:24:02;;;;;;;2.25;1.10;;;13.30;99.90;;;;;;5040824;28;20480;-78
2023/06/05 00:26:28;;;;;;;2.80;1.05;;;13.40;99.90;;;;;;5033564;28;20041;-78
2023/06/05 00:28:55;;;;;;;3.50;1.17;;;13.30;99.90;;;;;;5050569;28;20048;-78
2023/06/05 00:31:22;;;;;;;2.63;1.05;;;13.30;99.90;;;;;;5051486;28;20449;-78
2023/06/05 00:33:49;;;;;;;2.08;1.02;;;13.30;99.90;;;;;;5050040;28;20060;-78
2023/06/05 00:36:15;;;;;;;5.40;1.15;;;13.30;99.90;;;;;;5049865;28;20076;-79
2023/06/05 00:38:42;;;;;;;3.60;1.30;;;13.20;99.90;;;;;;5033799;28;20046;-79
2023/06/05 00:41:08;;;;;;;9.00;1.10;;;13.20;99.90;;;;;;5049836;28;20041;-78
2023/06/05 00:43:34;;;;;;;3.30;1.02;;;13.20;99.90;;;;;;5051464;28;20033;-78
2023/06/05 00:46:04;;;;;;;3.58;1.08;;;13.10;99.90;;;;;;5042930;28;20366;-78
2023/06/05 00:48:32;;;;;;;2.92;0.98;;;13.10;99.90;;;;;;5051258;28;20037;-78
2023/06/05 00:50:59;;;;;;;2.58;1.05;;;13.10;99.90;;;;;;5046188;28;20499;-79
2023/06/05 00:53:26;;;;;;;3.35;1.15;;;13.10;99.90;;;;;;5049723;28;20373;-78
2023/06/05 00:55:53;;;;;;;1.98;1.08;;;13.00;99.90;;;;;;5046870;28;20044;-79
2023/06/05 00:58:20;;;;;;;3.40;1.23;;;13.00;99.90;;;;;;5037929;28;20037;-79
2023/06/05 01:00:49;;;;;;;1.77;0.95;;;13.00;99.90;;;;;;5051112;28;20381;-78
2023/06/05 01:03:16;;;;;;;3.33;1.10;;;13.00;99.90;;;;;;5038385;28;20040;-79
2023/06/05 01:05:43;;;;;;;5.80;1.17;;;12.90;99.90;;;;;;5068129;28;20056;-78
2023/06/05 01:08:12;;;;;;;5.57;1.15;;;12.90;99.90;;;;;;5049150;28;20104;-79
2023/06/05 01:10:38;;;;;;;3.80;1.60;;;12.80;99.90;;;;;;5052030;28;20385;-79
2023/06/05 01:13:23;;;;;;;3.40;1.15;;;12.80;99.90;;;;;;5051521;28;20029;-78
2023/06/05 01:15:52;;;;;;;2.38;1.30;;;12.80;99.90;;;;;;5050730;28;20037;-79
2023/06/05 01:18:19;;;;;;;3.47;1.20;;;12.70;99.90;;;;;;5048795;28;20036;-80
2023/06/05 01:20:45;;;;;;;2.20;1.00;;;12.70;99.90;;;;;;5058220;28;20036;-78
2023/06/05 01:23:11;;;;;;;2.47;1.10;;;12.60;99.90;;;;;;5049761;28;20054;-78
2023/06/05 01:25:40;;;;;;;1.73;0.80;;;12.50;99.90;;;;;;5051538;28;20029;-78
2023/06/05 01:28:28;;;;;;;1.92;0.88;;;12.60;99.90;;;;;;5051123;28;20033;-78
2023/06/05 01:31:04;;;;;;;3.90;1.23;;;12.50;99.90;;;;;;5040873;28;20025;-78
2023/06/05 01:33:51;;;;;;;2.22;0.70;;;12.50;99.90;;;;;;5044359;28;20057;-79
2023/06/05 01:36:18;;;;;;;2.65;1.15;;;12.40;99.90;;;;;;5050053;28;20048;-80
2023/06/05 01:38:46;;;;;;;4.90;1.00;;;12.30;99.90;;;;;;5054346;28;20049;-80
2023/06/05 01:41:15;;;;;;;7.75;1.40;;;12.30;99.90;;;;;;5052768;28;20489;-81
2023/06/05 01:43:42;;;;;;;4.43;1.88;;;12.20;99.90;;;;;;5056980;28;20032;-80
2023/06/05 01:46:10;;;;;;;2.75;1.10;;;12.30;99.90;;;;;;5053682;28;20041;-80
2023/06/05 01:48:38;;;;;;;1.92;1.30;;;12.20;99.90;;;;;;5036412;28;20045;-80
2023/06/05 01:51:07;;;;;;;5.53;1.27;;;12.20;99.90;;;;;;5069356;28;20048;-80
2023/06/05 01:53:33;;;;;;;2.53;1.10;;;12.10;99.90;;;;;;5066329;28;20405;-80
2023/06/05 01:55:59;;;;;;;3.88;0.88;;;12.10;99.90;;;;;;5066918;28;20033;-80
2023/06/05 01:58:27;;;;;;;1.80;0.90;;;12.10;99.90;;;;;;5056911;28;20044;-81
2023/06/05 02:00:56;;;;;;;4.45;1.45;;;12.00;99.90;;;;;;5053838;28;20037;-81
2023/06/05 02:03:24;;;;;;;1.13;0.70;;;12.00;99.90;;;;;;5055064;28;20033;-81
2023/06/05 02:05:51;;;;;;;4.60;1.20;;;11.90;99.90;;;;;;5055591;28;20037;-78
2023/06/05 02:08:19;;;;;;;1.67;0.85;;;11.90;99.90;;;;;;5033174;28;20037;-81
2023/06/05 02:10:46;;;;;;;2.72;0.88;;;12.00;99.90;;;;;;5027686;28;20048;-80
2023/06/05 02:13:15;;;;;;;2.80;1.23;;;12.00;99.90;;;;;;5069981;28;20131;-80
2023/06/05 02:15:41;;;;;;;3.47;0.90;;;12.00;99.90;;;;;;5053387;28;20037;-79
2023/06/05 02:18:08;;;;;;;3.28;1.20;;;12.00;99.90;;;;;;5050120;28;20048;-79
2023/06/05 02:20:35;;;;;;;3.08;1.13;;;12.10;99.90;;;;;;5052875;28;20204;-80
2023/06/05 02:23:04;;;;;;;1.25;0.75;;;12.00;99.90;;;;;;5053165;28;20041;-80
2023/06/05 02:25:31;;;;;;;2.92;1.55;;;12.00;99.90;;;;;;5052500;28;20039;-80
2023/06/05 02:27:57;;;;;;;2.85;1.25;;;11.90;99.90;;;;;;5052718;28;20037;-79
2023/06/05 02:30:24;;;;;;;2.53;0.98;;;12.00;99.90;;;;;;5052399;28;20409;-80
2023/06/05 02:32:56;;;;;;;1.85;0.77;;;12.00;99.90;;;;;;5055001;28;20385;-80
2023/06/05 02:35:23;;;;;;;3.92;0.80;;;12.00;99.90;;;;;;5054540;28;20045;-79
2023/06/05 02:37:50;;;;;;;2.50;1.00;;;12.10;99.90;;;;;;5054661;28;20056;-80
2023/06/05 02:40:17;;;;;;;1.73;0.82;;;12.10;99.90;;;;;;5032515;28;20048;-82
2023/06/05 02:42:43;;;;;;;1.55;0.85;;;12.10;99.90;;;;;;5040467;28;20401;-80
2023/06/05 02:45:09;;;;;;;2.80;1.38;;;12.10;99.90;;;;;;5029936;28;20041;-79
2023/06/05 02:47:36;;;;;;;3.13;1.25;;;12.10;99.90;;;;;;5036237;28;20041;-80
2023/06/05 02:50:22;;;;;;;4.13;1.35;;;12.10;99.90;;;;;;5055253;28;20045;-80
2023/06/05 02:52:52;;;;;;;4.70;0.90;;;12.20;99.90;;;;;;5052132;28;20052;-78
2023/06/05 02:55:29;;;;;;;4.82;1.10;;;12.10;99.90;;;;;;5034901;28;20051;-79
2023/06/05 02:57:57;;;;;;;4.22;1.77;;;12.10;99.90;;;;;;5052339;28;20041;-80
2023/06/05 03:00:31;;;;;;;1.77;0.88;;;12.00;99.90;;;;;;5051882;28;20048;-79
2023/06/05 03:02:57;;;;;;;2.80;0.90;;;11.90;99.90;;;;;;5035200;28;20045;-79
2023/06/05 03:05:29;;;;;;;2.50;0.90;;;11.90;99.90;;;;;;5050223;28;20121;-79
2023/06/05 03:08:01;;;;;;;2.05;1.17;;;11.80;99.90;;;;;;5038664;28;20492;-80
2023/06/05 03:10:27;;;;;;;3.67;0.75;;;11.70;99.90;;;;;;5067960;28;20041;-79
2023/06/05 03:12:54;;;;;;;4.70;1.08;;;11.70;99.90;;;;;;5035512;28;20040;-78
2023/06/05 03:15:23;;;;;;;2.75;1.20;;;11.70;99.90;;;;;;5047566;28;20420;-83
2023/06/05 03:17:51;;;;;;;4.55;1.15;;;11.60;99.90;;;;;;5024932;28;20041;-80
2023/06/05 03:20:20;;;;;;;2.90;1.08;;;11.50;99.90;;;;;;5035984;28;20041;-79
2023/06/05 03:22:47;;;;;;;3.08;1.05;;;11.50;99.90;;;;;;5047109;28;20045;-79
2023/06/05 03:25:14;;;;;;;1.73;0.82;;;11.50;99.90;;;;;;5052225;28;20095;-79
2023/06/05 03:27:43;;;;;;;2.58;1.02;;;11.40;99.90;;;;;;5053031;28;20037;-79
2023/06/05 03:30:11;;;;;;;1.92;0.98;;;11.50;99.90;;;;;;5034229;28;20457;-79
2023/06/05 03:32:43;;;;;;;2.67;1.13;;;11.50;99.90;;;;;;5057923;28;20025;-79
2023/06/05 03:35:10;;;;;;;2.67;0.80;;;11.50;99.90;;;;;;5054150;28;20064;-79
2023/06/05 03:37:39;;;;;;;7.15;1.23;;;11.40;99.90;;;;;;5050398;28;20059;-80
2023/06/05 03:40:06;;;;;;;2.28;1.10;;;11.40;99.90;;;;;;5049460;28;20041;-79
2023/06/05 03:42:35;;;;;;;1.23;0.80;;;11.30;99.90;;;;;;5049965;28;20478;-79
2023/06/05 03:45:03;;;;;;;3.35;1.10;;;11.40;99.90;;;;;;5051874;28;20056;-79
2023/06/05 03:47:29;;;;;;;2.25;1.23;;;11.40;99.90;;;;;;5050552;28;20045;-79
2023/06/05 03:49:55;;;;;;;2.50;0.90;;;11.40;99.90;;;;;;5049625;28;20037;-79
2023/06/05 03:52:23;;;;;;;3.38;0.95;;;11.40;99.90;;;;;;5049356;28;20021;-79
2023/06/05 03:54:54;;;;;;;2.90;1.17;;;11.30;99.90;;;;;;5049110;28;20056;-79
2023/06/05 03:57:22;;;;;;;2.33;1.05;;;11.40;99.90;;;;;;5051197;28;20040;-80
2023/06/05 03:59:49;;;;;;;2.67;0.95;;;11.40;99.90;;;;;;5055434;28;20049;-79
2023/06/05 04:02:16;;;;;;;2.50;0.98;;;11.50;99.90;;;;;;5052100;28;20037;-79
2023/06/05 04:04:42;;;;;;;3.53;1.52;;;11.60;99.90;;;;;;5050314;28;20044;-80
2023/06/05 04:07:08;;;;;;;5.40;1.10;;;11.60;99.90;;;;;;5050919;28;20029;-79
2023/06/05 04:09:35;;;;;;;3.08;1.20;;;11.60;99.90;;;;;;5049938;28;20045;-79
2023/06/05 04:12:01;;;;;;;2.47;1.15;;;11.70;99.90;;;;;;5051093;28;20044;-79
2023/06/05 04:14:29;;;;;;;1.92;0.75;;;11.70;99.90;;;;;;5049901;28;20049;-79
2023/06/05 04:16:55;;;;;;;3.30;1.10;;;11.80;99.90;;;;;;5050109;28;20045;-79
2023/06/05 04:19:24;;;;;;;4.18;1.02;;;12.00;99.90;;;;;;5048678;28;20076;-79
2023/06/05 04:21:54;;;;;;;3.28;1.45;;;12.60;99.90;;;;;;5033887;28;20041;-78
2023/06/05 04:24:20;;;;;;;3.00;0.90;;;13.30;99.90;;;;;;5052259;28;20041;-80
2023/06/05 04:26:47;;;;;;;4.38;1.17;;;14.00;99.90;;;;;;5049691;28;20045;-79
2023/06/05 04:29:15;;;;;;;6.40;1.02;;;14.30;99.90;;;;;;5050380;28;20036;-78
2023/06/05 04:31:42;;;;;;;2.97;0.77;;;14.40;99.90;;;;;;5045782;28;20392;-79
2023/06/05 04:34:09;;;;;;;3.10;0.90;;;14.60;99.90;;;;;;5050145;28;20496;-79
2023/06/05 04:36:36;;;;;;;2.42;1.00;;;14.40;99.90;;;;;;5033019;28;20041;-79
2023/06/05 04:39:14;;;;;;;2.53;0.90;;;14.40;99.90;;;;;;5053245;28;20045;-80
2023/06/05 04:41:46;;;;;;;3.38;1.00;;;14.50;99.90;;;;;;5051452;28;20041;-80
2023/06/05 04:44:18;;;;;;;3.28;0.90;;;15.10;99.90;;;;;;5064092;28;20045;-80
2023/06/05 04:46:48;;;;;;;2.63;1.00;;;15.50;99.90;;;;;;5063677;28;20496;-80
2023/06/05 04:49:16;;;;;;;3.53;0.93;;;15.70;99.90;;;;;;5032656;28;20033;-79
2023/06/05 04:51:43;;;;;;;4.72;1.15;;;16.00;99.90;;;;;;5049616;28;20385;-79
2023/06/05 04:54:11;;;;;;;4.35;0.98;;;16.30;99.90;;;;;;5046331;28;20045;-79
2023/06/05 04:56:39;;;;;;;2.80;0.80;;;16.20;99.90;;;;;;5031742;28;20449;-79
2023/06/05 04:59:06;;;;;;;3.47;0.80;;;16.30;99.90;;;;;;5030730;28;20056;-79
2023/06/05 05:01:33;;;;;;;7.47;1.35;;;16.00;99.90;;;;;;5031267;28;20048;-77
2023/06/05 05:04:00;;;;;;;6.68;1.15;;;15.80;99.90;;;;;;5030161;28;20120;-78
2023/06/05 05:06:26;;;;;;;3.10;1.08;;;15.70;99.90;;;;;;5014859;28;20037;-79
2023/06/05 05:08:52;;;;;;;2.25;1.20;;;15.50;99.90;;;;;;5030457;28;20052;-79
2023/06/05 05:11:18;;;;;;;4.38;0.95;;;15.60;99.90;;;;;;5035627;28;20036;-79
2023/06/05 05:13:46;;;;;;;2.17;1.17;;;15.90;99.90;;;;;;5035566;28;20564;-78
2023/06/05 05:16:13;;;;;;;4.55;1.40;;;16.30;99.90;;;;;;5039788;28;20449;-79
2023/06/05 05:18:42;;;;;;;2.72;1.23;;;16.50;99.90;;;;;;5040586;28;20045;-79
2023/06/05 05:21:08;;;;;;;3.10;1.08;;;16.90;99.90;;;;;;5014501;28;20493;-78
2023/06/05 05:23:35;;;;;;;3.58;1.00;;;16.80;99.90;;;;;;5052199;28;20028;-79
2023/06/05 05:26:01;;;;;;;3.45;1.13;;;16.70;99.90;;;;;;5036336;28;20041;-79
2023/06/05 05:28:28;;;;;;;8.18;1.52;;;16.60;99.90;;;;;;5053524;28;20350;-78
2023/06/05 05:30:58;;;;;;;4.95;1.00;;;16.50;99.90;;;;;;5049953;28;20052;-78
2023/06/05 05:33:25;;;;;;;5.72;1.25;;;16.60;99.90;;;;;;5052191;28;20136;-79
2023/06/05 05:35:51;;;;;;;3.30;1.15;;;16.60;99.90;;;;;;5059139;28;20052;-78
2023/06/05 05:38:18;;;;;;;2.53;1.17;;;16.50;99.90;;;;;;5052172;28;20052;-79
2023/06/05 05:40:45;;;;;;;2.72;1.10;;;16.90;99.90;;;;;;5050913;28;20493;-78
2023/06/05 05:43:11;;;;;;;1.65;0.82;;;17.20;99.90;;;;;;5043855;28;20056;-78
2023/06/05 05:45:39;;;;;;;4.38;1.42;;;17.10;99.90;;;;;;5050729;28;20037;-78
2023/06/05 05:48:05;;;;;;;3.70;0.90;;;17.70;99.90;;;;;;5054133;28;20033;-78
2023/06/05 05:50:31;;;;;;;4.13;0.93;;;17.70;99.90;;;;;;5053573;28;20102;-78
2023/06/05 05:52:58;;;;;;;3.20;0.90;;;18.10;99.90;;;;;;5046167;28;20043;-78
2023/06/05 05:55:24;;;;;;;2.47;1.10;;;18.40;99.90;;;;;;5052981;28;20056;-79
2023/06/05 05:57:50;;;;;;;7.05;1.15;;;18.40;99.90;;;;;;5053026;28;20040;-83
2023/06/05 06:00:17;;;;;;;3.65;0.88;;;18.20;99.90;;;;;;5049698;28;20066;-79
2023/06/05 06:02:43;;;;;;;6.68;1.40;;;18.10;99.90;;;;;;5024948;28;20482;-80
2023/06/05 06:05:12;;;;;;;3.75;1.42;;;18.30;99.90;;;;;;5051767;28;20103;-79
2023/06/05 06:07:40;;;;;;;7.18;1.08;;;18.80;99.90;;;;;;5035851;28;20048;-79
2023/06/05 06:10:07;;;;;;;3.92;1.10;;;18.60;99.90;;;;;;5036299;28;20045;-78
2023/06/05 06:12:33;;;;;;;5.13;1.23;;;18.90;99.90;;;;;;5050226;28;20041;-80
2023/06/05 06:15:00;;;;;;;3.90;1.15;;;19.30;99.90;;;;;;5044995;28;20052;-80
2023/06/05 06:17:27;;;;;;;5.25;1.23;;;19.50;99.90;;;;;;5052968;28;20055;-79
2023/06/05 06:19:53;;;;;;;2.97;1.25;;;20.20;99.90;;;;;;5053249;28;20458;-80
2023/06/05 06:22:19;;;;;;;3.38;1.02;;;20.60;99.90;;;;;;5052142;28;20040;-79
2023/06/05 06:24:46;;;;;;;2.78;1.10;;;21.10;93.30;;;;;;5052612;28;20396;-79
2023/06/05 06:27:13;;;;;;;2.80;0.93;;;20.90;90.60;;;;;;5035487;28;20401;-76
2023/06/05 06:29:52;;;;;;;5.53;1.23;;;20.80;84.20;;;;;;5047950;28;20036;-78
2023/06/05 06:32:19;;;;;;;4.88;0.90;;;20.60;84.30;;;;;;5062218;28;20045;-78
2023/06/05 06:34:45;;;;;;;1.75;0.95;;;21.10;76.10;;;;;;5043551;28;20076;-79
2023/06/05 06:37:15;;;;;;;3.97;0.80;;;20.40;79.80;;;;;;5050834;28;20040;-79
2023/06/05 06:39:42;;;;;;;2.60;1.05;;;20.40;85.50;;;;;;5054664;28;20037;-79
2023/06/05 06:42:12;;;;;;;2.90;1.00;;;20.40;86.10;;;;;;5044423;28;20032;-78
2023/06/05 06:44:41;;;;;;;2.13;1.10;;;20.60;87.30;;;;;;5061560;28;20434;-79
2023/06/05 06:47:08;;;;;;;3.40;1.00;;;20.80;78.10;;;;;;5051357;28;20048;-79
2023/06/05 06:49:36;;;;;;;2.63;0.80;;;21.10;80.30;;;;;;5023893;28;20033;-77
2023/06/05 06:52:02;;;;;;;1.95;0.95;;;22.10;58.40;;;;;;5051726;28;20029;-78
2023/06/05 06:54:28;;;;;;;3.88;1.30;;;22.50;54.00;;;;;;5052383;28;20044;-79
2023/06/05 06:56:55;;;;;;;1.85;1.00;;;22.70;47.80;;;;;;5049914;28;20036;-80
2023/06/05 06:59:22;;;;;;;1.23;0.82;;;22.00;56.80;;;;;;5050999;28;20031;-80
2023/06/05 07:02:11;;;;;;;3.58;1.17;;;21.70;60.90;;;;;;5048761;28;20029;-79
2023/06/05 07:04:38;;;;;;;4.07;0.70;;;21.50;66.90;;;;;;5028997;28;20044;-81
2023/06/05 07:07:04;;;;;;;5.35;1.05;;;21.40;83.90;;;;;;5055368;28;20037;-79
2023/06/05 07:09:31;;;;;;;3.13;1.10;;;22.00;68.00;;;;;;5050672;28;20056;-79
2023/06/05 07:11:58;;;;;;;1.75;0.93;;;21.70;71.90;;;;;;5059059;28;20044;-79
2023/06/05 07:14:24;;;;;;;1.10;0.70;;;21.90;65.70;;;;;;5053540;28;20462;-81
2023/06/05 07:16:55;;;;;;;2.03;1.10;;;22.10;57.10;;;;;;5045994;28;20389;-80
2023/06/05 07:19:21;;;;;;;3.05;1.30;;;22.00;55.90;;;;;;5049186;28;20088;-80
2023/06/05 07:21:47;;;;;;;3.13;0.90;;;22.10;52.40;;;;;;5062401;28;20289;-78
2023/06/05 07:24:14;;;;;;;2.13;1.20;;;22.50;59.70;;;;;;5050586;28;20041;-79
2023/06/05 07:26:40;;;;;;;1.95;0.95;;;23.00;41.90;;;;;;5030513;28;20313;-78
2023/06/05 07:29:06;;;;;;;2.35;0.98;;;22.50;58.10;;;;;;5049045;28;20040;-79
2023/06/05 07:31:33;;;;;;;3.08;1.20;;;22.10;57.20;;;;;;5050944;28;20033;-80
2023/06/05 07:33:59;;;;;;;2.72;1.08;;;22.00;57.80;;;;;;5051785;28;20021;-80
2023/06/05 07:36:25;;;;;;;2.13;1.20;;;22.10;63.30;;;;;;5050966;28;20044;-80
2023/06/05 07:38:52;;;;;;;4.05;1.30;;;22.40;60.30;;;;;;5067428;28;20485;-80
2023/06/05 07:41:18;;;;;;;4.28;1.23;;;22.50;60.50;;;;;;5052137;28;20028;-80
2023/06/05 07:43:44;;;;;;;3.67;1.10;;;22.70;62.00;;;;;;5050135;28;20037;-80
2023/06/05 07:46:10;;;;;;;2.05;1.00;;;23.10;57.50;;;;;;5049044;28;20053;-79
2023/06/05 07:48:37;;;;;;;4.18;1.40;;;23.30;45.90;;;;;;5048415;28;20041;-79
2023/06/05 07:51:03;;;;;;;3.55;1.38;;;24.60;36.80;;;;;;5052578;28;20040;-80
2023/06/05 07:53:29;;;;;;;3.17;1.27;;;25.60;24.10;;;;;;5047449;28;20032;-81
2023/06/05 07:55:56;;;;;;;3.28;1.20;;;26.00;19.50;;;;;;5032626;28;20056;-79
2023/06/05 07:58:22;;;;;;;2.92;1.25;;;26.40;17.60;;;;;;5050878;28;20401;-79
2023/06/05 08:00:48;;;;;;;4.00;1.33;;;26.30;17.20;;;;;;5051507;28;20040;-78
2023/06/05 08:03:21;;;;;;;3.90;1.25;;;26.10;14.80;;;;;;5052558;28;20056;-79
2023/06/05 08:05:48;;;;;;;1.85;1.15;;;24.10;22.60;;;;;;5030733;28;20029;-80
2023/06/05 08:08:14;;;;;;;1.95;0.88;;;24.40;31.20;;;;;;5051755;28;20033;-79
2023/06/05 08:10:41;;;;;;;2.53;0.90;;;24.70;27.50;;;;;;5049725;28;20450;-80
2023/06/05 08:13:10;;;;;;;3.92;1.30;;;24.10;27.10;;;;;;5048651;28;20038;-80
2023/06/05 08:15:36;;;;;;;4.43;1.23;;;23.90;31.80;;;;;;5048540;28;20040;-80
2023/06/05 08:18:03;;;;;;;2.72;1.27;;;23.20;43.50;;;;;;5051725;28;20037;-81
2023/06/05 08:20:29;;;;;;;4.05;1.17;;;23.80;39.30;;;;;;5051939;28;20029;-82
2023/06/05 08:22:58;;;;;;;5.97;1.02;;;24.10;43.40;;;;;;5049471;28;20060;-80
2023/06/05 08:25:25;;;;;;;2.17;1.00;;;24.50;33.50;;;;;;5050100;28;20370;-80
2023/06/05 08:27:51;;;;;;;3.08;0.70;;;24.10;38.60;;;;;;5053982;28;20048;-80
2023/06/05 08:30:17;;;;;;;4.10;1.20;;;23.90;37.20;;;;;;5050391;28;20032;-80
2023/06/05 08:32:44;;;;;;;2.55;0.98;;;24.40;36.60;;;;;;5049773;28;20473;-80
2023/06/05 08:35:12;;;;;;;5.72;2.20;;;24.60;42.90;;;;;;5048923;28;20337;-80
2023/06/05 08:37:39;;;;;;;3.53;1.35;;;25.30;32.40;;;;;;5049610;28;20049;-80
2023/06/05 08:40:12;;;;;;;2.55;1.33;;;26.20;23.60;;;;;;5050112;28;20044;-78
2023/06/05 08:42:38;;;;;;;5.50;1.55;;;26.50;22.50;;;;;;5049676;28;20040;-79
2023/06/05 08:45:07;;;;;;;2.10;1.13;;;25.70;28.40;;;;;;5051909;28;20496;-80
2023/06/05 08:47:37;;;;;;;2.92;1.40;;;26.20;27.60;;;;;;5051332;28;20025;-81
2023/06/05 08:50:05;;;;;;;2.65;1.60;;;26.20;22.70;;;;;;5051504;28;20037;-78
2023/06/05 08:52:35;;;;;;;2.88;1.60;;;26.10;27.40;;;;;;5041538;28;20041;-81
2023/06/05 08:55:04;;;;;;;2.65;1.52;;;26.80;23.90;;;;;;5049652;28;20049;-78
2023/06/05 08:57:31;;;;;;;5.75;1.83;;;27.00;26.10;;;;;;5050395;28;20037;-78
2023/06/05 09:00:00;;;;;;;2.28;1.38;;;27.40;22.60;;;;;;5045785;28;20059;-78
2023/06/05 09:02:26;;;;;;;4.57;1.60;;;27.50;21.80;;;;;;5051435;28;20029;-78
2023/06/05 09:04:52;;;;;;;7.13;2.10;;;27.20;20.20;;;;;;5048243;28;20040;-80
2023/06/05 09:07:19;;;;;;;3.35;1.98;;;25.40;32.40;;;;;;5051159;28;20029;-80
2023/06/05 09:09:45;;;;;;;2.58;1.60;;;24.60;41.80;;;;;;5033083;28;20500;-80
2023/06/05 09:12:13;;;;;;;5.80;1.55;;;24.60;47.60;;;;;;5032828;28;20049;-81
2023/06/05 09:14:39;;;;;;;2.28;1.60;;;24.60;47.10;;;;;;5046322;28;20493;-80
2023/06/05 09:17:12;;;;;;;5.78;1.85;;;24.70;42.80;;;;;;5032898;28;20570;-79
2023/06/05 09:19:47;;;;;;;5.13;1.52;;;24.60;48.00;;;;;;5051017;28;20033;-76
2023/06/05 09:22:14;;;;;;;3.90;2.25;;;24.40;56.50;;;;;;5046994;28;20037;-81
2023/06/05 09:24:41;;;;;;;2.58;1.38;;;25.40;53.40;;;;;;5059255;28;20041;-81
2023/06/05 09:27:11;;;;;;;3.50;1.65;;;26.20;38.20;;;;;;5047022;28;20040;-81
2023/06/05 09:29:39;;;;;;;3.65;1.88;;;26.10;41.90;;;;;;5042432;28;20060;-79
2023/06/05 09:32:08;;;;;;;3.03;1.60;;;26.80;33.10;;;;;;5041885;28;20021;-79
2023/06/05 09:34:36;;;;;;;3.72;1.92;;;27.50;27.80;;;;;;5049292;28;20504;-78
2023/06/05 09:37:05;;;;;;;3.00;1.85;;;26.60;28.40;;;;;;5050537;28;20049;-80
2023/06/05 09:39:34;;;;;;;3.13;1.98;;;25.40;51.40;;;;;;5054267;28;20037;-80
2023/06/05 09:42:01;;;;;;;3.47;1.90;;;25.60;56.50;;;;;;5032969;28;20397;-80
2023/06/05 09:44:28;;;;;;;3.33;2.13;;;26.00;50.30;;;;;;5033857;28;20032;-81
2023/06/05 09:47:03;;;;;;;4.00;2.30;;;25.50;60.90;;;;;;5049547;28;20397;-80
2023/06/05 09:49:32;;;;;;;3.42;1.83;;;25.20;63.40;;;;;;5049932;28;20041;-83
2023/06/05 09:52:00;;;;;;;2.13;1.38;;;25.40;70.90;;;;;;5057759;28;20048;-81
2023/06/05 09:54:29;;;;;;;2.55;1.80;;;25.80;63.20;;;;;;5050586;28;20033;-80
2023/06/05 09:57:01;;;;;;;3.10;1.60;;;26.20;56.60;;;;;;5049857;28;20041;-79
2023/06/05 09:59:32;;;;;;;3.58;1.73;;;26.50;46.70;;;;;;5034323;28;20318;-83
2023/06/05 10:02:04;;;;;;;3.63;1.55;;;26.50;48.90;;;;;;5049025;28;20029;-82
2023/06/05 10:04:41;;;;;;;3.40;1.73;;;25.40;60.00;;;;;;5047981;28;20423;-83
2023/06/05 10:07:08;;;;;;;3.30;1.65;;;25.60;63.20;;;;;;5051719;28;20052;-81
2023/06/05 10:09:36;;;;;;;3.92;1.50;;;26.00;52.20;;;;;;5047930;28;20044;-83
2023/06/05 10:12:04;;;;;;;4.40;1.83;;;26.40;45.80;;;;;;5049349;28;20041;-80
2023/06/05 10:14:30;;;;;;;4.20;1.90;;;26.70;34.80;;;;;;5065056;28;20040;-81
2023/06/05 10:16:58;;;;;;;3.20;1.40;;;27.10;34.80;;;;;;5048291;28;20039;-82
2023/06/05 10:19:24;;;;;;;3.78;1.60;;;26.10;34.00;;;;;;5053436;28;20048;-80
2023/06/05 10:21:51;;;;;;;4.50;1.67;;;25.60;43.90;;;;;;5055929;28;20052;-80
2023/06/05 10:24:34;;;;;;;3.38;2.05;;;25.50;47.00;;;;;;5053951;28;20041;-81
2023/06/05 10:27:09;;;;;;;3.45;2.08;;;25.70;47.60;;;;;;5051616;28;20469;-79
2023/06/05 10:29:52;;;;;;;4.10;1.80;;;26.20;37.20;;;;;;5051158;28;20037;-82
2023/06/05 10:32:28;;;;;;;3.05;1.75;;;26.40;35.30;;;;;;5052819;28;20033;-82
2023/06/05 10:35:15;;;;;;;2.88;1.77;;;26.60;35.30;;;;;;5051334;28;20041;-85
2023/06/05 10:37:46;;;;;;;4.32;1.85;;;26.40;31.50;;;;;;5051212;28;20064;-84
2023/06/05 10:40:16;;;;;;;4.82;2.00;;;26.10;33.50;;;;;;5052785;28;20033;-83
2023/06/05 10:42:42;;;;;;;5.45;1.88;;;26.20;39.70;;;;;;5051645;28;20025;-88
2023/06/05 10:45:10;;;;;;;2.65;1.60;;;26.20;27.60;;;;;;5051869;28;20386;-76
2023/06/05 10:47:36;;;;;;;5.15;2.20;;;26.10;28.10;;;;;;5052800;28;20028;-85
2023/06/05 10:50:17;;;;;;;2.47;1.58;;;25.70;30.40;;;;;;5035494;28;20127;-77
2023/06/05 10:52:44;;;;;;;3.95;2.33;;;26.10;38.90;;;;;;5049592;28;20052;-75
2023/06/05 10:55:12;;;;;;;3.05;2.00;;;26.60;27.20;;;;;;5049195;28;20041;-76
2023/06/05 10:58:03;;;;;;;3.15;1.90;;;26.60;24.90;;;;;;5052430;28;20037;-77
2023/06/05 11:00:34;;;;;;;4.35;1.67;;;26.30;26.90;;;;;;5062325;28;20042;-79
2023/06/05 11:03:01;;;;;;;4.13;1.77;;;25.80;28.90;;;;;;5038126;28;20037;-77
2023/06/05 11:05:28;;;;;;;2.70;1.60;;;25.90;27.50;;;;;;5028346;28;20049;-75
2023/06/05 11:08:33;;;;;;;3.65;1.75;;;26.20;26.00;;;;;;5013300;28;20065;-77
2023/06/05 11:11:09;;;;;;;2.05;1.17;;;26.40;14.80;;;;;;4935153;29;20039;-80
2023/06/05 11:13:55;;;;;;;2.90;1.60;;;26.10;16.30;;;;;;5021479;28;20552;-86
2023/06/05 11:16:30;;;;;;;4.88;1.35;;;26.00;12.60;;;;;;5029140;28;20045;-79
2023/06/05 11:19:21;;;;;;;3.90;1.60;;;25.90;12.70;;;;;;5031250;28;20041;-85
2023/06/05 11:22:11;;;;;;;3.60;1.70;;;25.80;10.00;;;;;;5029681;28;20045;-82
2023/06/05 11:24:38;;;;;;;2.25;1.23;;;26.30;11.40;;;;;;5018922;28;20049;-87
2023/06/05 11:27:05;;;;;;;3.10;1.27;;;26.40;9.70;;;;;;5032551;28;20121;-80
2023/06/05 11:29:32;;;;;;;2.60;1.92;;;26.40;7.00;;;;;;5014958;28;20044;-87
2023/06/05 11:32:00;;;;;;;3.92;2.10;;;26.30;8.30;;;;;;5013218;28;20041;-84
2023/06/05 11:34:27;;;;;;;3.50;1.95;;;26.60;7.70;;;;;;5027434;28;20036;-78
2023/06/05 11:36:54;;;;;;;2.25;1.60;;;26.70;5.90;;;;;;5035068;28;20490;-76
2023/06/05 11:39:21;;;;;;;3.15;1.45;;;26.80;5.10;;;;;;5051917;28;20036;-80
2023/06/05 11:41:50;;;;;;;4.30;1.85;;;27.20;3.90;;;;;;5051641;28;20041;-89
2023/06/05 11:44:30;;;;;;;2.95;1.40;;;27.50;2.20;;;;;;5047079;28;20037;-89
2023/06/05 11:46:56;;;;;;;2.38;1.58;;;26.90;1.00;;;;;;5044143;28;20041;-91
2023/06/05 11:49:25;;;;;;;2.38;1.42;;;26.50;1.10;;;;;;5047850;28;20032;-83
2023/06/05 11:51:51;;;;;;;3.13;1.50;;;26.60;3.30;;;;;;5051691;28;20425;-86
2023/06/05 11:54:33;;;;;;;5.03;1.55;;;26.60;2.80;;;;;;5060548;28;20033;-83
2023/06/05 11:57:07;;;;;;;3.35;1.58;;;26.90;1.70;;;;;;5070684;28;20052;-83
2023/06/05 11:59:35;;;;;;;3.22;1.40;;;27.10;1.50;;;;;;5053065;28;20056;-79
2023/06/05 12:02:03;;;;;;;3.67;1.90;;;27.30;1.00;;;;;;5052260;28;20056;-87
2023/06/05 12:04:31;;;;;;;3.15;1.50;;;27.20;1.00;;;;;;5050314;28;20679;-77
2023/06/05 12:06:59;;;;;;;6.93;1.55;;;27.30;1.00;;;;;;5047916;28;20053;-78
2023/06/05 12:09:26;;;;;;;4.68;1.65;;;27.20;1.00;;;;;;5047439;28;20056;-83
2023/06/05 12:11:52;;;;;;;3.58;1.50;;;26.70;1.00;;;;;;5046266;28;20094;-75
2023/06/05 12:14:32;;;;;;;3.38;1.40;;;26.90;2.70;;;;;;5046252;28;20025;-87
2023/06/05 12:16:59;;;;;;;2.60;1.25;;;27.00;1.00;;;;;;5051700;28;20032;-80
2023/06/05 12:19:25;;;;;;;1.88;1.17;;;27.20;1.00;;;;;;5053844;28;20056;-78
2023/06/05 12:22:03;;;;;;;3.08;1.77;;;27.20;1.00;;;;;;5056086;28;20511;-81
2023/06/05 12:24:29;;;;;;;4.80;2.13;;;27.00;1.00;;;;;;5030573;28;20056;-84
2023/06/05 12:27:04;;;;;;;2.88;1.75;;;27.10;1.00;;;;;;5051670;28;20397;-84
2023/06/05 12:29:32;;;;;;;1.90;1.23;;;27.20;1.00;;;;;;5049315;28;20037;-81
2023/06/05 12:32:00;;;;;;;3.00;1.60;;;27.50;1.00;;;;;;5054282;28;20041;-81
2023/06/05 12:34:46;;;;;;;2.63;1.48;;;27.50;1.00;;;;;;5051719;28;20453;-84
2023/06/05 12:37:29;;;;;;;4.25;1.60;;;27.40;1.00;;;;;;5051808;28;20052;-83
2023/06/05 12:39:56;;;;;;;3.13;2.17;;;27.00;1.00;;;;;;5051783;28;20036;-80
2023/06/05 12:42:22;;;;;;;2.30;1.25;;;27.10;2.90;;;;;;5051487;28;20045;-82
2023/06/05 12:44:49;;;;;;;2.38;1.52;;;27.40;1.60;;;;;;5048808;28;20037;-83
2023/06/05 12:47:15;;;;;;;2.22;1.38;;;27.60;1.00;;;;;;5052283;28;20076;-78
2023/06/05 12:49:41;;;;;;;3.80;1.65;;;27.30;1.00;;;;;;5051837;28;20036;-86
2023/06/05 12:52:11;;;;;;;4.88;1.30;;;26.90;2.30;;;;;;5050632;28;20054;-79
2023/06/05 12:54:37;;;;;;;3.33;1.42;;;26.60;1.10;;;;;;5051228;28;20041;-88
2023/06/05 12:57:07;;;;;;;3.63;1.50;;;26.20;3.20;;;;;;5049898;28;20040;-80